Time;durP1;ratioP1;P1;durP2;ratioP2;P2;SDS_P1;SDS_P2;PMS_P1;PMS_P2;Temp;Humidity;BMP_temperature;BMP_pressure;BME280_temperature;BME280_humidity;BME280_pressure;Samples;Min_cycle;Max_cycle;Signal;HPM_P1;HPM_P2
2022/05/20 00:01:54;;;;;;;;;9.00;8.00;;;;;;;;5142957;27;11334;-83
2022/05/20 00:04:19;;;;;;;;;7.00;7.00;;;;;;;;5143316;27;8778;-81
2022/05/20 00:06:44;;;;;;;;;9.00;9.00;;;;;;;;5125272;27;10480;-81
2022/05/20 00:09:10;;;;;;;;;9.00;8.00;;;;;;;;5143904;27;8790;-82
2022/05/20 00:11:35;;;;;;;;;8.00;8.00;;;;;;;;5124075;27;9524;-82
2022/05/20 00:14:01;;;;;;;;;9.75;8.00;;;;;;;;5143632;27;8778;-82
2022/05/20 00:16:29;;;;;;;;;7.00;5.75;;;;;;;;5143150;27;8786;-82
2022/05/20 00:18:54;;;;;;;;;10.00;5.75;;;;;;;;5142743;27;11369;-81
2022/05/20 00:21:19;;;;;;;;;5.75;5.50;;;;;;;;5141618;27;16495;-81
2022/05/20 00:23:45;;;;;;;;;8.50;6.00;;;;;;;;5142213;27;21404;-81
2022/05/20 00:26:10;;;;;;;;;8.75;6.50;;;;;;;;5142493;27;11311;-81
2022/05/20 00:28:35;;;;;;;;;9.25;6.25;;;;;;;;5142277;27;9575;-81
2022/05/20 00:31:04;;;;;;;;;11.00;8.75;;;;;;;;5141864;27;11904;-81
2022/05/20 00:33:30;;;;;;;;;3.75;3.75;;;;;;;;5142906;27;22632;-81
2022/05/20 00:35:55;;;;;;;;;9.75;7.00;;;;;;;;5142425;27;21445;-81
2022/05/20 00:38:21;;;;;;;;;8.25;7.25;;;;;;;;5142832;27;12515;-82
2022/05/20 00:40:48;;;;;;;;;7.00;7.00;;;;;;;;5136952;27;11358;-82
2022/05/20 00:43:27;;;;;;;;;8.00;7.00;;;;;;;;5142283;27;12082;-80
2022/05/20 00:45:54;;;;;;;;;9.00;8.00;;;;;;;;5142039;27;10869;-81
2022/05/20 00:48:19;;;;;;;;;7.50;7.00;;;;;;;;5142214;27;10823;-80
2022/05/20 00:50:48;;;;;;;;;9.00;8.00;;;;;;;;5143188;27;11304;-81
2022/05/20 00:53:16;;;;;;;;;4.00;4.00;;;;;;;;5142209;27;11060;-81
2022/05/20 00:55:42;;;;;;;;;7.00;6.50;;;;;;;;5142637;27;10661;-80
2022/05/20 00:58:10;;;;;;;;;8.75;7.75;;;;;;;;5141952;27;11597;-81
2022/05/20 01:00:37;;;;;;;;;7.00;7.00;;;;;;;;5142156;27;11621;-81
2022/05/20 01:03:04;;;;;;;;;8.00;8.00;;;;;;;;5141944;27;12095;-80
2022/05/20 01:05:31;;;;;;;;;8.25;7.00;;;;;;;;5142958;27;10824;-82
2022/05/20 01:07:58;;;;;;;;;8.00;7.00;;;;;;;;5141963;27;10998;-82
2022/05/20 01:10:23;;;;;;;;;10.00;6.50;;;;;;;;5141936;27;10984;-83
2022/05/20 01:12:49;;;;;;;;;5.00;5.00;;;;;;;;5121811;27;22090;-82
2022/05/20 01:15:14;;;;;;;;;9.00;8.25;;;;;;;;5142213;27;21521;-82
2022/05/20 01:17:40;;;;;;;;;6.00;6.00;;;;;;;;5142492;27;11987;-82
2022/05/20 01:20:08;;;;;;;;;9.00;8.00;;;;;;;;5142227;27;12037;-82
2022/05/20 01:22:39;;;;;;;;;7.50;5.00;;;;;;;;5141407;27;8894;-84
2022/05/20 01:25:06;;;;;;;;;5.00;5.00;;;;;;;;5142385;27;11086;-82
2022/05/20 01:27:31;;;;;;;;;8.00;8.00;;;;;;;;5141599;27;10834;-82
2022/05/20 01:29:57;;;;;;;;;7.25;7.25;;;;;;;;5141575;27;11006;-83
2022/05/20 01:32:22;;;;;;;;;9.00;7.25;;;;;;;;5141735;27;11420;-81
2022/05/20 01:34:48;;;;;;;;;10.00;7.00;;;;;;;;5122577;27;9135;-81
2022/05/20 01:37:14;;;;;;;;;8.50;7.00;;;;;;;;5141529;27;22036;-81
2022/05/20 01:39:39;;;;;;;;;8.75;5.50;;;;;;;;5141645;27;17373;-81
2022/05/20 01:42:07;;;;;;;;;7.00;5.50;;;;;;;;5141520;27;10278;-82
2022/05/20 01:44:39;;;;;;;;;8.00;7.00;;;;;;;;5141435;27;8870;-81
2022/05/20 01:47:16;;;;;;;;;7.75;6.00;;;;;;;;5123029;27;12424;-82
2022/05/20 01:49:49;;;;;;;;;8.00;7.00;;;;;;;;5141602;27;11414;-81
2022/05/20 01:52:14;;;;;;;;;7.25;7.00;;;;;;;;5141889;27;11039;-81
2022/05/20 01:54:47;;;;;;;;;9.25;5.25;;;;;;;;5122736;27;11041;-82
2022/05/20 01:57:20;;;;;;;;;5.50;4.75;;;;;;;;5139802;27;11381;-81
2022/05/20 01:59:49;;;;;;;;;7.25;7.25;;;;;;;;5141300;27;11014;-83
2022/05/20 02:02:24;;;;;;;;;5.25;4.25;;;;;;;;5141014;27;11832;-82
2022/05/20 02:04:52;;;;;;;;;7.75;7.00;;;;;;;;5141382;27;11821;-82
2022/05/20 02:07:23;;;;;;;;;8.00;7.25;;;;;;;;5140463;27;11916;-81
2022/05/20 02:10:06;;;;;;;;;8.00;8.00;;;;;;;;5141231;27;11516;-82
2022/05/20 02:12:36;;;;;;;;;8.50;8.00;;;;;;;;5140240;27;10976;-80
2022/05/20 02:15:08;;;;;;;;;9.00;6.50;;;;;;;;5140141;27;11336;-80
2022/05/20 02:17:35;;;;;;;;;8.00;8.00;;;;;;;;5140928;27;11735;-82
2022/05/20 02:20:13;;;;;;;;;9.00;7.75;;;;;;;;5140546;27;11391;-81
2022/05/20 02:22:41;;;;;;;;;2.50;2.00;;;;;;;;5141194;27;11364;-82
2022/05/20 02:25:09;;;;;;;;;7.25;7.00;;;;;;;;5121100;27;13666;-81
2022/05/20 02:27:37;;;;;;;;;9.00;8.00;;;;;;;;5140800;27;11423;-81
2022/05/20 02:30:04;;;;;;;;;10.00;8.75;;;;;;;;5140816;27;11527;-82
2022/05/20 02:32:31;;;;;;;;;8.75;8.00;;;;;;;;5141316;27;21456;-84
2022/05/20 02:34:56;;;;;;;;;2.25;2.00;;;;;;;;5140819;27;21591;-83
2022/05/20 02:37:24;;;;;;;;;7.50;7.50;;;;;;;;5140278;27;10988;-84
2022/05/20 02:39:50;;;;;;;;;6.75;6.75;;;;;;;;5142010;27;12707;-84
2022/05/20 02:42:16;;;;;;;;;7.00;7.00;;;;;;;;5142205;27;11557;-84
2022/05/20 02:44:41;;;;;;;;;8.00;8.00;;;;;;;;5140751;27;11279;-84
2022/05/20 02:47:06;;;;;;;;;7.00;7.00;;;;;;;;5140690;27;9589;-86
2022/05/20 02:49:32;;;;;;;;;8.00;7.00;;;;;;;;5141571;27;8818;-85
2022/05/20 02:51:58;;;;;;;;;6.50;4.00;;;;;;;;5141624;27;9530;-85
2022/05/20 02:54:23;;;;;;;;;6.25;6.25;;;;;;;;5140760;27;10517;-86
2022/05/20 02:56:48;;;;;;;;;8.75;8.00;;;;;;;;5122627;27;10903;-86
2022/05/20 03:04:43;;;;;;;;;9.00;7.00;;;;;;;;5140886;27;11351;-83
2022/05/20 03:07:09;;;;;;;;;8.25;7.50;;;;;;;;5140937;27;11417;-85
2022/05/20 03:09:34;;;;;;;;;7.00;7.00;;;;;;;;5141056;27;11302;-85
2022/05/20 03:11:59;;;;;;;;;8.00;8.00;;;;;;;;5140455;27;11301;-83
2022/05/20 03:14:25;;;;;;;;;6.50;6.50;;;;;;;;5140653;27;8819;-85
2022/05/20 03:16:50;;;;;;;;;7.00;7.00;;;;;;;;5140652;27;12116;-85
2022/05/20 03:19:16;;;;;;;;;9.00;9.00;;;;;;;;5141268;27;12360;-85
2022/05/20 03:21:42;;;;;;;;;9.00;8.00;;;;;;;;5140974;27;8816;-86
2022/05/20 03:24:08;;;;;;;;;10.00;8.00;;;;;;;;5141462;27;8719;-85
2022/05/20 03:26:34;;;;;;;;;7.25;7.25;;;;;;;;5140559;27;16458;-86
2022/05/20 03:28:59;;;;;;;;;11.00;8.50;;;;;;;;5140814;27;21600;-85
2022/05/20 03:31:25;;;;;;;;;7.00;7.00;;;;;;;;5140582;27;21811;-86
2022/05/20 03:33:51;;;;;;;;;11.00;8.25;;;;;;;;5140760;27;22590;-86
2022/05/20 03:36:16;;;;;;;;;9.75;8.75;;;;;;;;5140146;27;21478;-87
2022/05/20 03:38:41;;;;;;;;;6.50;6.50;;;;;;;;5140906;27;22709;-87
2022/05/20 03:41:07;;;;;;;;;9.25;7.75;;;;;;;;5140843;27;11450;-86
2022/05/20 03:43:35;;;;;;;;;8.00;8.00;;;;;;;;5141731;27;11584;-87
2022/05/20 03:46:00;;;;;;;;;7.00;7.00;;;;;;;;5140150;27;11385;-85
2022/05/20 03:48:26;;;;;;;;;7.75;7.25;;;;;;;;5139750;27;11426;-85
2022/05/20 03:50:51;;;;;;;;;8.00;8.00;;;;;;;;5140877;27;8782;-84
2022/05/20 03:53:17;;;;;;;;;8.00;7.00;;;;;;;;5140309;27;11303;-86
2022/05/20 03:55:42;;;;;;;;;9.75;7.75;;;;;;;;5140596;27;8865;-86
2022/05/20 03:58:08;;;;;;;;;8.25;7.50;;;;;;;;5141234;27;11293;-87
2022/05/20 04:01:56;;;;;;;;;10.25;10.25;;;;;;;;5141124;27;11351;-87
2022/05/20 04:03:18;;;;;;;;;8.25;8.25;;;;;;;;5140188;27;22414;-88
2022/05/20 04:05:44;;;;;;;;;10.00;9.00;;;;;;;;5140736;27;22520;-85
2022/05/20 04:08:09;;;;;;;;;11.50;10.00;;;;;;;;5140163;27;21600;-85
2022/05/20 04:10:34;;;;;;;;;8.00;8.00;;;;;;;;5139854;27;22151;-86
2022/05/20 04:13:00;;;;;;;;;11.50;7.75;;;;;;;;5139441;27;22144;-86
2022/05/20 04:15:25;;;;;;;;;10.50;8.00;;;;;;;;5139744;27;21476;-86
2022/05/20 04:17:50;;;;;;;;;7.25;7.25;;;;;;;;5140378;27;10304;-87
2022/05/20 04:20:15;;;;;;;;;8.75;8.75;;;;;;;;5124160;27;21844;-85
2022/05/20 04:22:41;;;;;;;;;8.00;8.00;;;;;;;;5144308;27;10566;-86
2022/05/20 04:25:06;;;;;;;;;10.50;8.00;;;;;;;;5144044;27;8798;-86
2022/05/20 04:27:32;;;;;;;;;7.00;7.00;;;;;;;;5144098;27;16246;-85
2022/05/20 04:29:57;;;;;;;;;7.00;6.25;;;;;;;;5143644;27;21844;-86
2022/05/20 04:32:23;;;;;;;;;9.25;6.00;;;;;;;;5144458;27;9340;-90
2022/05/20 04:34:48;;;;;;;;;11.00;9.00;;;;;;;;5144197;27;11308;-88
2022/05/20 04:37:14;;;;;;;;;8.50;7.25;;;;;;;;5144341;27;22594;-90
2022/05/20 04:39:39;;;;;;;;;11.25;10.00;;;;;;;;5144100;27;21511;-88
2022/05/20 04:47:33;;;;;;;;;10.00;7.00;;;;;;;;5144668;27;12148;-78
2022/05/20 04:49:58;;;;;;;;;8.75;8.00;;;;;;;;5124071;27;11424;-82
2022/05/20 04:52:24;;;;;;;;;9.25;9.25;;;;;;;;5141895;27;21361;-81
2022/05/20 04:54:50;;;;;;;;;11.75;9.00;;;;;;;;5137813;27;11359;-82
2022/05/20 04:57:27;;;;;;;;;9.00;9.00;;;;;;;;5111528;27;23902;-81
2022/05/20 04:59:58;;;;;;;;;8.50;8.50;;;;;;;;5132195;27;16352;-80
2022/05/20 05:02:23;;;;;;;;;11.50;9.00;;;;;;;;5131332;27;11395;-80
2022/05/20 05:04:48;;;;;;;;;13.75;12.25;;;;;;;;5135962;27;23100;-81
2022/05/20 05:07:14;;;;;;;;;12.50;10.50;;;;;;;;5140383;27;21422;-83
2022/05/20 05:09:40;;;;;;;;;10.50;10.50;;;;;;;;5137207;27;11359;-77
2022/05/20 05:12:06;;;;;;;;;13.25;12.50;;;;;;;;5143523;27;8786;-78
2022/05/20 05:14:39;;;;;;;;;21.00;18.00;;;;;;;;5143595;27;11472;-84
2022/05/20 05:17:08;;;;;;;;;23.00;18.50;;;;;;;;5130342;27;13715;-79
2022/05/20 05:19:37;;;;;;;;;14.50;14.25;;;;;;;;5121155;28;12003;-77
2022/05/20 05:22:04;;;;;;;;;15.75;14.25;;;;;;;;5121283;28;14245;-77
2022/05/20 05:24:30;;;;;;;;;12.25;12.25;;;;;;;;5121474;28;11559;-77
2022/05/20 05:26:55;;;;;;;;;12.75;12.50;;;;;;;;5121248;28;11527;-81
2022/05/20 05:29:20;;;;;;;;;11.50;11.00;;;;;;;;5103253;28;9113;-83
2022/05/20 05:31:45;;;;;;;;;13.00;13.00;;;;;;;;5122823;27;11920;-80
2022/05/20 05:34:11;;;;;;;;;14.00;11.75;;;;;;;;5128667;27;10391;-85
2022/05/20 05:36:36;;;;;;;;;14.75;13.00;;;;;;;;5132303;27;11387;-82
2022/05/20 05:39:02;;;;;;;;;12.50;11.25;;;;;;;;5136529;27;10713;-80
2022/05/20 05:41:27;;;;;;;;;14.75;13.00;;;;;;;;5114109;27;12325;-82
2022/05/20 05:43:53;;;;;;;;;12.25;12.25;;;;;;;;5132502;27;11602;-80
2022/05/20 05:46:19;;;;;;;;;18.25;16.50;;;;;;;;5130599;27;11912;-81
2022/05/20 05:48:44;;;;;;;;;15.00;13.00;;;;;;;;5130523;27;12590;-80
2022/05/20 05:51:09;;;;;;;;;13.00;10.50;;;;;;;;5131846;27;11382;-77
2022/05/20 05:53:35;;;;;;;;;12.00;11.00;;;;;;;;5130000;27;11579;-80
2022/05/20 05:56:01;;;;;;;;;14.00;13.00;;;;;;;;5133316;27;11584;-81
2022/05/20 05:58:31;;;;;;;;;12.50;10.50;;;;;;;;5134442;27;8818;-81
2022/05/20 06:00:56;;;;;;;;;13.75;13.00;;;;;;;;5130874;27;12845;-75
2022/05/20 06:03:22;;;;;;;;;14.50;14.50;;;;;;;;5129332;27;11446;-80
2022/05/20 06:05:47;;;;;;;;;13.00;9.75;;;;;;;;5128453;27;11564;-81
2022/05/20 06:08:13;;;;;;;;;18.00;17.00;;;;;;;;5129859;27;22671;-76
2022/05/20 06:10:38;;;;;;;;;32.25;32.00;;;;;;;;5128058;27;21440;-74
2022/05/20 06:13:04;;;;;;;;;30.50;28.50;;;;;;;;5128556;27;12836;-76
2022/05/20 06:15:30;;;;;;;;;41.75;35.25;;;;;;;;5111764;27;13037;-74
2022/05/20 06:17:56;;;;;;;;;38.50;34.00;;;;;;;;5129908;27;13405;-75
2022/05/20 06:20:22;;;;;;;;;29.25;28.00;;;;;;;;5128954;27;13398;-72
2022/05/20 06:22:47;;;;;;;;;28.50;26.50;;;;;;;;5127937;27;12879;-74
2022/05/20 06:25:13;;;;;;;;;22.00;22.00;;;;;;;;5129421;27;12012;-74
2022/05/20 06:27:38;;;;;;;;;23.50;21.00;;;;;;;;5127561;27;12682;-74
2022/05/20 06:30:05;;;;;;;;;20.25;18.00;;;;;;;;5127826;27;10356;-75
2022/05/20 06:32:30;;;;;;;;;20.25;18.50;;;;;;;;5131581;27;11483;-74
2022/05/20 06:40:25;;;;;;;;;22.00;21.00;;;;;;;;5129173;27;13247;-74
2022/05/20 06:42:50;;;;;;;;;18.25;16.75;;;;;;;;5128849;27;13766;-74
2022/05/20 06:45:16;;;;;;;;;19.75;17.25;;;;;;;;5127164;27;13637;-74
2022/05/20 06:47:41;;;;;;;;;18.50;17.25;;;;;;;;5136232;27;10379;-75
2022/05/20 06:50:07;;;;;;;;;14.00;14.00;;;;;;;;5139713;27;9325;-76
2022/05/20 06:52:33;;;;;;;;;18.50;17.00;;;;;;;;5118747;27;11460;-72
2022/05/20 06:54:58;;;;;;;;;20.00;19.00;;;;;;;;5112486;27;12182;-73
2022/05/20 06:57:27;;;;;;;;;18.00;17.75;;;;;;;;5139063;27;12736;-73
2022/05/20 06:59:52;;;;;;;;;21.25;18.25;;;;;;;;5139786;27;13296;-72
2022/05/20 07:02:18;;;;;;;;;21.25;16.00;;;;;;;;5138995;27;12199;-73
2022/05/20 07:04:43;;;;;;;;;19.25;18.50;;;;;;;;5139537;27;8820;-72
2022/05/20 07:07:09;;;;;;;;;30.25;28.25;;;;;;;;5140040;27;13500;-77
2022/05/20 07:09:34;;;;;;;;;18.75;15.00;;;;;;;;5134504;27;13299;-84
2022/05/20 07:11:59;;;;;;;;;66.75;49.50;;;;;;;;5111383;27;15601;-82
2022/05/20 07:14:24;;;;;;;;;53.00;42.50;;;;;;;;5140262;27;13789;-80
2022/05/20 07:16:50;;;;;;;;;14.75;14.75;;;;;;;;5139385;27;13581;-81
2022/05/20 07:19:16;;;;;;;;;30.75;29.50;;;;;;;;5139978;27;13233;-81
2022/05/20 07:21:41;;;;;;;;;21.00;17.50;;;;;;;;5111197;27;15278;-79
2022/05/20 07:24:07;;;;;;;;;29.75;26.50;;;;;;;;5109331;27;12754;-79
2022/05/20 07:26:32;;;;;;;;;20.25;19.50;;;;;;;;5127573;27;12092;-81
2022/05/20 07:28:59;;;;;;;;;24.75;24.75;;;;;;;;5129924;27;10626;-81
2022/05/20 07:31:24;;;;;;;;;27.75;27.00;;;;;;;;5125839;27;12535;-81
2022/05/20 07:33:51;;;;;;;;;27.00;23.00;;;;;;;;5128109;27;12176;-83
2022/05/20 07:36:16;;;;;;;;;27.25;24.75;;;;;;;;5127590;27;9636;-76
2022/05/20 07:38:43;;;;;;;;;16.00;14.00;;;;;;;;5114632;27;12488;-81
2022/05/20 07:41:09;;;;;;;;;25.75;23.00;;;;;;;;5125298;27;13296;-76
2022/05/20 07:43:34;;;;;;;;;19.75;18.25;;;;;;;;5126872;27;12283;-78
2022/05/20 07:46:00;;;;;;;;;25.75;25.00;;;;;;;;5126112;27;13271;-74
2022/05/20 07:48:26;;;;;;;;;26.75;22.00;;;;;;;;5127530;27;13383;-76
2022/05/20 07:50:53;;;;;;;;;18.25;17.25;;;;;;;;5129809;27;8837;-75
2022/05/20 07:53:19;;;;;;;;;21.25;18.75;;;;;;;;5128738;27;13493;-74
2022/05/20 07:55:46;;;;;;;;;23.25;21.25;;;;;;;;5129277;27;13542;-79
2022/05/20 07:58:14;;;;;;;;;20.75;20.50;;;;;;;;5130616;27;11507;-77
2022/05/20 08:00:39;;;;;;;;;12.50;12.50;;;;;;;;5131290;27;12502;-76
2022/05/20 08:03:05;;;;;;;;;24.75;24.25;;;;;;;;5129048;27;12200;-76
2022/05/20 08:05:31;;;;;;;;;26.00;24.75;;;;;;;;5129301;27;13295;-80
2022/05/20 08:08:00;;;;;;;;;12.00;10.00;;;;;;;;5129751;27;10461;-80
2022/05/20 08:10:25;;;;;;;;;16.00;15.75;;;;;;;;5131660;27;13456;-74
2022/05/20 08:12:51;;;;;;;;;11.00;11.00;;;;;;;;5129277;27;11431;-75
2022/05/20 08:15:17;;;;;;;;;20.25;19.25;;;;;;;;5129927;27;11677;-75
2022/05/20 08:17:43;;;;;;;;;27.25;21.75;;;;;;;;5113034;27;15927;-76
2022/05/20 08:20:11;;;;;;;;;14.67;14.33;;;;;;;;5130331;27;11857;-78
2022/05/20 08:22:37;;;;;;;;;16.00;16.00;;;;;;;;5130102;27;12434;-79
2022/05/20 08:25:03;;;;;;;;;11.00;9.67;;;;;;;;5132317;27;11938;-78
2022/05/20 08:27:29;;;;;;;;;16.00;12.67;;;;;;;;5133390;27;21627;-75
2022/05/20 08:29:55;;;;;;;;;13.00;13.00;;;;;;;;5130131;27;21956;-76
2022/05/20 08:32:20;;;;;;;;;15.67;15.00;;;;;;;;5129003;27;11408;-76
2022/05/20 08:34:46;;;;;;;;;9.00;9.00;;;;;;;;5122134;27;10883;-78
2022/05/20 08:37:12;;;;;;;;;8.00;8.00;;;;;;;;5121691;28;22266;-78
2022/05/20 08:39:38;;;;;;;;;9.50;9.25;;;;;;;;5121312;28;8791;-78
2022/05/20 08:42:05;;;;;;;;;10.67;10.67;;;;;;;;5121597;28;11815;-77
2022/05/20 08:44:32;;;;;;;;;18.33;16.67;;;;;;;;5121418;28;22796;-75
2022/05/20 08:47:19;;;;;;;;;10.50;9.00;;;;;;;;5121143;28;10460;-76
2022/05/20 08:49:44;;;;;;;;;9.25;9.00;;;;;;;;5121137;28;21803;-74
2022/05/20 08:52:10;;;;;;;;;8.33;7.33;;;;;;;;5121360;28;16635;-74
2022/05/20 08:54:35;;;;;;;;;11.00;11.00;;;;;;;;5120882;27;11537;-76
2022/05/20 08:57:15;;;;;;;;;9.33;8.00;;;;;;;;5121891;28;22244;-78
2022/05/20 08:59:40;;;;;;;;;15.00;13.25;;;;;;;;5120628;28;22501;-74
2022/05/20 09:02:06;;;;;;;;;14.67;13.33;;;;;;;;5120483;28;22520;-76
2022/05/20 09:04:31;;;;;;;;;13.00;13.00;;;;;;;;5120786;27;8854;-75
2022/05/20 09:06:58;;;;;;;;;11.00;10.00;;;;;;;;5102039;28;12037;-73
2022/05/20 09:09:26;;;;;;;;;8.00;7.25;;;;;;;;5118679;27;8822;-74
2022/05/20 09:11:56;;;;;;;;;12.75;12.75;;;;;;;;5100457;28;23699;-73
2022/05/20 09:17:13;;;;;;;;;11.50;11.50;;;;;;;;5126229;27;21512;-73
2022/05/20 09:19:40;;;;;;;;;10.25;10.25;;;;;;;;5140081;27;22122;-73
2022/05/20 09:22:05;;;;;;;;;11.50;10.75;;;;;;;;5139327;27;14954;-73
2022/05/20 09:24:38;;;;;;;;;7.67;7.00;;;;;;;;5139054;27;10738;-73
2022/05/20 09:27:06;;;;;;;;;8.00;8.00;;;;;;;;5139950;27;22737;-73
2022/05/20 09:29:43;;;;;;;;;13.25;12.00;;;;;;;;5139191;27;12045;-73
2022/05/20 09:32:24;;;;;;;;;6.50;6.50;;;;;;;;5139228;27;23500;-73
2022/05/20 09:34:55;;;;;;;;;8.50;7.75;;;;;;;;5140277;27;22375;-73
2022/05/20 09:37:21;;;;;;;;;8.00;6.00;;;;;;;;5140893;27;11403;-72
2022/05/20 09:39:47;;;;;;;;;11.00;11.00;;;;;;;;5123541;27;10884;-72
2022/05/20 09:42:20;;;;;;;;;18.75;16.75;;;;;;;;5139780;27;23587;-75
2022/05/20 09:44:49;;;;;;;;;7.00;7.00;;;;;;;;5140838;27;11468;-72
2022/05/20 09:47:33;;;;;;;;;8.25;7.50;;;;;;;;5122046;27;24932;-74
2022/05/20 09:50:02;;;;;;;;;15.25;14.75;;;;;;;;5128802;27;11635;-73
2022/05/20 09:52:31;;;;;;;;;9.50;8.25;;;;;;;;5126871;27;22569;-71
2022/05/20 09:55:03;;;;;;;;;17.50;14.25;;;;;;;;5127932;27;22674;-72
2022/05/20 09:57:42;;;;;;;;;9.25;9.25;;;;;;;;5132907;27;23155;-68
2022/05/20 10:00:21;;;;;;;;;8.00;6.00;;;;;;;;5139392;27;22416;-68
2022/05/20 10:03:06;;;;;;;;;14.33;14.00;;;;;;;;5135456;27;12639;-70
2022/05/20 10:05:31;;;;;;;;;10.00;10.00;;;;;;;;5124250;27;22522;-69
2022/05/20 10:08:00;;;;;;;;;10.00;10.00;;;;;;;;5132640;27;11625;-68
2022/05/20 10:10:48;;;;;;;;;9.00;7.75;;;;;;;;5129781;27;8874;-69
2022/05/20 10:13:20;;;;;;;;;6.50;6.50;;;;;;;;5116752;27;22407;-70
2022/05/20 10:15:47;;;;;;;;;9.75;6.25;;;;;;;;5131054;27;11633;-72
2022/05/20 10:18:33;;;;;;;;;4.50;4.25;;;;;;;;5127239;27;11889;-69
2022/05/20 10:21:14;;;;;;;;;11.00;11.00;;;;;;;;5110451;27;10905;-70
2022/05/20 10:23:49;;;;;;;;;5.25;5.25;;;;;;;;5109745;27;23037;-73
2022/05/20 10:26:23;;;;;;;;;6.00;6.00;;;;;;;;5128323;27;24046;-72
2022/05/20 10:34:49;;;;;;;;;7.75;4.75;;;;;;;;5127983;27;8809;-72
2022/05/20 10:37:20;;;;;;;;;7.00;5.67;;;;;;;;5127615;27;10950;-76
2022/05/20 10:39:54;;;;;;;;;6.00;6.00;;;;;;;;5127421;27;10415;-75
2022/05/20 10:42:23;;;;;;;;;3.75;3.75;;;;;;;;5128336;27;11904;-73
2022/05/20 10:50:24;;;;;;;;;7.00;7.00;;;;;;;;5128367;27;11297;-75
2022/05/20 10:52:52;;;;;;;;;7.00;6.00;;;;;;;;5127878;27;12221;-75
2022/05/20 10:55:25;;;;;;;;;7.50;6.75;;;;;;;;5108258;27;9122;-74
2022/05/20 10:57:56;;;;;;;;;4.00;4.00;;;;;;;;5127803;27;8776;-74
2022/05/20 11:00:22;;;;;;;;;5.00;5.00;;;;;;;;5106834;27;13119;-73
2022/05/20 11:02:48;;;;;;;;;4.25;4.25;;;;;;;;5129362;27;9145;-75
2022/05/20 11:05:13;;;;;;;;;7.00;5.33;;;;;;;;5127541;27;11544;-75
2022/05/20 11:07:47;;;;;;;;;6.33;5.33;;;;;;;;5110093;27;10903;-74
2022/05/20 11:10:16;;;;;;;;;5.33;5.33;;;;;;;;5109010;27;10956;-74
2022/05/20 11:12:56;;;;;;;;;7.00;6.00;;;;;;;;5125383;27;8956;-78
2022/05/20 11:15:29;;;;;;;;;5.33;5.00;;;;;;;;5107159;27;13851;-77
2022/05/20 11:17:57;;;;;;;;;4.25;4.00;;;;;;;;5127598;27;10637;-78
2022/05/20 11:20:41;;;;;;;;;5.33;5.00;;;;;;;;5135442;27;9276;-77
2022/05/20 11:23:17;;;;;;;;;9.00;5.75;;;;;;;;5139732;27;9466;-77
2022/05/20 11:25:58;;;;;;;;;6.00;5.00;;;;;;;;5120004;27;14951;-79
2022/05/20 11:28:42;;;;;;;;;7.00;7.00;;;;;;;;5140233;27;11393;-79
2022/05/20 11:31:07;;;;;;;;;4.50;4.50;;;;;;;;5123455;27;8939;-77
2022/05/20 11:33:50;;;;;;;;;6.00;5.00;;;;;;;;5125014;27;13569;-79
2022/05/20 11:36:34;;;;;;;;;6.00;6.00;;;;;;;;5113563;27;11734;-76
2022/05/20 11:39:11;;;;;;;;;6.33;6.33;;;;;;;;5131993;27;9023;-74
2022/05/20 11:41:40;;;;;;;;;6.00;5.00;;;;;;;;5128829;27;9346;-74
2022/05/20 11:44:23;;;;;;;;;7.00;7.00;;;;;;;;5129957;27;10345;-75
2022/05/20 11:46:49;;;;;;;;;6.00;5.50;;;;;;;;5131395;27;9004;-79
2022/05/20 11:49:38;;;;;;;;;6.00;6.00;;;;;;;;5130254;27;11390;-79
2022/05/20 11:52:22;;;;;;;;;6.00;6.00;;;;;;;;5130327;27;8736;-78
2022/05/20 11:54:50;;;;;;;;;7.25;6.00;;;;;;;;5130234;27;9151;-76
2022/05/20 11:57:18;;;;;;;;;6.00;4.33;;;;;;;;5111837;27;9218;-78
2022/05/20 12:00:02;;;;;;;;;8.00;5.33;;;;;;;;5126815;27;11544;-75
2022/05/20 12:02:30;;;;;;;;;6.33;5.33;;;;;;;;5118776;28;9063;-80
2022/05/20 12:04:56;;;;;;;;;5.00;5.00;;;;;;;;5128858;27;8971;-79
2022/05/20 12:07:23;;;;;;;;;6.25;6.00;;;;;;;;5126028;27;11375;-81
2022/05/20 12:09:49;;;;;;;;;5.00;5.00;;;;;;;;5122827;28;10363;-92
2022/05/20 12:12:21;;;;;;;;;6.50;5.50;;;;;;;;5122677;28;11745;-87
2022/05/20 12:15:04;;;;;;;;;6.00;6.00;;;;;;;;5123619;28;11631;-87
2022/05/20 12:17:39;;;;;;;;;7.00;4.25;;;;;;;;5123618;28;10326;-89
2022/05/20 12:26:03;;;;;;;;;7.33;7.33;;;;;;;;5089568;27;11564;-72
2022/05/20 12:28:33;;;;;;;;;5.00;3.33;;;;;;;;5126428;27;10263;-72
2022/05/20 12:31:14;;;;;;;;;6.00;6.00;;;;;;;;5121244;28;10872;-83
2022/05/20 12:33:45;;;;;;;;;7.33;7.33;;;;;;;;5122056;28;11429;-79
2022/05/20 13:08:15;;;;;;;;;6.33;6.33;;;;;;;;5164232;27;78702;-78
2022/05/20 13:10:41;;;;;;;;;5.00;5.00;;;;;;;;5155803;27;20951;-78
2022/05/20 13:13:11;;;;;;;;;8.00;6.67;;;;;;;;5157077;27;11545;-79
2022/05/20 13:15:56;;;;;;;;;4.67;4.67;;;;;;;;5157511;27;12658;-80
2022/05/20 13:18:26;;;;;;;;;8.00;7.33;;;;;;;;5158043;27;11043;-82
2022/05/20 13:20:53;;;;;;;;;7.00;6.00;;;;;;;;5157783;27;12691;-81
2022/05/20 13:23:20;;;;;;;;;7.00;6.00;;;;;;;;5157393;27;11391;-79
2022/05/20 13:25:46;;;;;;;;;8.33;6.00;;;;;;;;5158369;27;8792;-80
2022/05/20 13:28:11;;;;;;;;;5.33;5.33;;;;;;;;5158078;27;9174;-83
2022/05/20 13:30:36;;;;;;;;;6.00;5.00;;;;;;;;5158562;27;11445;-82
2022/05/20 13:33:07;;;;;;;;;5.67;5.00;;;;;;;;5156809;27;12463;-79
2022/05/20 13:35:52;;;;;;;;;5.00;5.00;;;;;;;;5157261;27;8932;-80
2022/05/20 13:38:17;;;;;;;;;5.50;4.00;;;;;;;;5157510;27;8776;-81
2022/05/20 13:40:43;;;;;;;;;3.00;3.00;;;;;;;;5155543;27;10181;-82
2022/05/20 13:43:12;;;;;;;;;6.33;6.33;;;;;;;;5149198;27;10576;-80
2022/05/20 13:51:35;;;;;;;;;4.00;4.00;;;;;;;;5145753;27;10323;-81
2022/05/20 13:54:03;;;;;;;;;7.00;5.00;;;;;;;;5144737;27;8816;-82
2022/05/20 13:56:31;;;;;;;;;3.25;3.00;;;;;;;;5139476;27;10828;-83
2022/05/20 13:59:00;;;;;;;;;3.75;3.75;;;;;;;;5147541;27;10502;-82
2022/05/20 14:01:25;;;;;;;;;3.25;3.00;;;;;;;;5144564;27;8810;-81
2022/05/20 14:03:51;;;;;;;;;4.67;4.67;;;;;;;;5145019;27;8806;-79
2022/05/20 14:06:21;;;;;;;;;7.00;5.00;;;;;;;;5143244;27;11435;-88
2022/05/20 14:08:54;;;;;;;;;5.25;5.00;;;;;;;;5156792;27;11376;-73
2022/05/20 14:11:27;;;;;;;;;3.75;3.25;;;;;;;;5155838;27;9127;-77
2022/05/20 14:13:57;;;;;;;;;5.00;4.00;;;;;;;;5138762;27;11380;-77
2022/05/20 14:16:25;;;;;;;;;5.00;5.00;;;;;;;;5150813;27;11470;-76
2022/05/20 14:18:56;;;;;;;;;3.50;3.50;;;;;;;;5143662;27;8792;-77
2022/05/20 14:21:28;;;;;;;;;4.50;4.00;;;;;;;;5138135;27;11892;-77
2022/05/20 14:23:55;;;;;;;;;9.33;9.33;;;;;;;;5140397;27;11575;-77
2022/05/20 14:26:26;;;;;;;;;5.00;4.25;;;;;;;;5140669;27;11921;-77
2022/05/20 14:28:54;;;;;;;;;3.67;3.67;;;;;;;;5140417;27;10407;-74
2022/05/20 14:31:22;;;;;;;;;4.00;4.00;;;;;;;;5137175;27;11610;-74
2022/05/20 14:33:50;;;;;;;;;4.50;4.50;;;;;;;;5140202;27;11383;-75
2022/05/20 14:36:15;;;;;;;;;5.67;5.33;;;;;;;;5140214;27;8796;-74
2022/05/20 14:38:45;;;;;;;;;12.00;11.00;;;;;;;;5139826;27;11538;-72
2022/05/20 14:41:16;;;;;;;;;7.67;7.67;;;;;;;;5139634;27;22804;-75
2022/05/20 14:43:49;;;;;;;;;4.25;3.50;;;;;;;;5137949;27;23814;-85
2022/05/20 14:47:14;;;;;;;;;6.00;4.00;;;;;;;;5140366;27;11599;-83
2022/05/20 14:49:13;;;;;;;;;5.75;5.00;;;;;;;;5135119;27;11379;-82
2022/05/20 14:51:42;;;;;;;;;6.00;5.00;;;;;;;;5139024;27;10812;-83
2022/05/20 14:54:12;;;;;;;;;2.25;2.25;;;;;;;;5140566;27;9293;-85
2022/05/20 14:56:38;;;;;;;;;4.25;4.00;;;;;;;;5140046;27;11821;-83
2022/05/20 14:59:03;;;;;;;;;4.33;4.00;;;;;;;;5139941;27;11566;-80
2022/05/20 15:01:30;;;;;;;;;6.00;4.00;;;;;;;;5138949;27;8804;-84
2022/05/20 15:03:56;;;;;;;;;5.00;3.25;;;;;;;;5139971;27;8852;-81
2022/05/20 15:06:26;;;;;;;;;5.33;4.00;;;;;;;;5139472;27;11513;-80
2022/05/20 15:08:52;;;;;;;;;5.50;3.50;;;;;;;;5139412;27;10373;-81
2022/05/20 15:11:19;;;;;;;;;5.00;5.00;;;;;;;;5139341;27;10314;-78
2022/05/20 15:13:45;;;;;;;;;3.00;3.00;;;;;;;;5138362;27;12717;-80
2022/05/20 15:16:10;;;;;;;;;7.00;4.00;;;;;;;;5140057;27;8816;-79
2022/05/20 15:18:35;;;;;;;;;4.00;4.00;;;;;;;;5140167;27;8804;-78
2022/05/20 15:21:02;;;;;;;;;3.00;3.00;;;;;;;;5140247;27;8826;-79
2022/05/20 15:23:28;;;;;;;;;5.50;3.00;;;;;;;;5138834;27;9598;-79
2022/05/20 15:25:53;;;;;;;;;4.00;4.00;;;;;;;;5140403;27;8824;-78
2022/05/20 15:36:32;;;;;;;;;3.25;2.75;;;;;;;;5140245;27;11340;-81
2022/05/20 15:38:58;;;;;;;;;3.00;3.00;;;;;;;;5139795;27;11317;-81
2022/05/20 15:41:24;;;;;;;;;4.00;3.00;;;;;;;;5139450;27;10665;-79
2022/05/20 15:43:50;;;;;;;;;3.50;3.00;;;;;;;;5138028;27;9192;-78
2022/05/20 15:46:15;;;;;;;;;4.33;3.33;;;;;;;;5139099;27;9997;-77
2022/05/20 15:48:41;;;;;;;;;4.00;4.00;;;;;;;;5137827;27;12604;-80
2022/05/20 15:51:06;;;;;;;;;3.00;3.00;;;;;;;;5138785;27;10335;-77
2022/05/20 15:53:31;;;;;;;;;4.00;4.00;;;;;;;;5139509;27;10146;-78
2022/05/20 15:55:57;;;;;;;;;2.67;2.67;;;;;;;;5137020;27;9035;-78
2022/05/20 15:58:25;;;;;;;;;8.33;6.33;;;;;;;;5140487;27;11277;-79
2022/05/20 16:00:50;;;;;;;;;6.25;5.25;;;;;;;;5135616;27;12606;-79
2022/05/20 16:03:21;;;;;;;;;8.67;5.67;;;;;;;;5120624;27;8791;-72
2022/05/20 16:05:46;;;;;;;;;11.33;10.33;;;;;;;;5118731;27;11516;-72